Broussard, Louisiana
Current Conditions -  °F | °C
As of 10:53 AM on Friday 24 Oct 2014 (Local Time) from KLFT Reporting Station
Clear Clear  
Wind Chill: 66°   Ceiling: Unl
Heat Index: 66°   Visibility: 10mi
Dew Point: 52°   Wind: 5mph
Humidity: 60%   Direction: 350°N
Pressure: 30.15"   Gusts: NA
Location:  30.15°N, 91.96°W
Report Text: KLFT 241553Z 35004KT 10SM CLR 19/11 A3015 RMK AO2 SLP209 T01890111
Loading
Personal Weather Stations






























Interactive Weather Map
Tropical Storm Tracking
New forecast layout! Learn more

10-Day Weather Forecast

Advertisements
Track Severe Weather on mobile